createdAt,value
2019-02-17T00:00:41.101Z,101551
2019-02-17T00:06:03.764Z,101550
2019-02-17T00:11:26.435Z,101549
2019-02-17T00:16:49.110Z,101551
2019-02-17T00:22:11.861Z,101546
2019-02-17T00:27:34.531Z,101542
2019-02-17T00:32:57.270Z,101537
2019-02-17T00:38:20.174Z,101529
2019-02-17T00:43:42.918Z,101526
2019-02-17T00:49:05.630Z,101523
2019-02-17T00:54:28.417Z,101521
2019-02-17T00:59:51.135Z,101516
2019-02-17T01:05:13.918Z,101519
2019-02-17T01:10:36.683Z,101515
2019-02-17T01:16:00.013Z,101519
2019-02-17T01:21:22.696Z,101506
2019-02-17T01:26:45.690Z,101502
2019-02-17T01:32:08.426Z,101513
2019-02-17T01:37:31.110Z,101513
2019-02-17T01:42:53.814Z,101509
2019-02-17T01:48:16.458Z,101506
2019-02-17T01:53:40.132Z,101497
2019-02-17T01:59:04.022Z,101494
2019-02-17T02:04:26.698Z,101490
2019-02-17T02:09:49.803Z,101486
2019-02-17T02:15:12.543Z,101483
2019-02-17T02:20:35.353Z,101483
2019-02-17T02:25:58.001Z,101491
2019-02-17T02:31:20.804Z,101474
2019-02-17T02:36:43.475Z,101470
2019-02-17T02:42:06.256Z,101471
2019-02-17T02:47:28.908Z,101465
2019-02-17T02:52:51.581Z,101464
2019-02-17T02:58:14.402Z,101458
2019-02-17T03:03:37.069Z,101458
2019-02-17T03:08:59.962Z,101457
2019-02-17T03:14:22.807Z,101458
2019-02-17T03:19:45.598Z,101463
2019-02-17T03:25:08.385Z,101463
2019-02-17T03:30:31.236Z,101459
2019-02-17T03:35:53.945Z,101458
2019-02-17T03:41:16.708Z,101455
2019-02-17T03:46:39.344Z,101453
2019-02-17T03:52:02.880Z,101449
2019-02-17T03:57:26.481Z,101448
2019-02-17T04:02:50.040Z,101436
2019-02-17T04:08:12.816Z,101422
2019-02-17T04:13:35.543Z,101426
2019-02-17T04:18:58.920Z,101427
2019-02-17T04:24:22.426Z,101423
2019-02-17T04:29:45.262Z,101427
2019-02-17T04:35:07.891Z,101421
2019-02-17T04:40:30.731Z,101419
2019-02-17T04:45:54.927Z,101414
2019-02-17T04:51:17.679Z,101409
2019-02-17T04:56:40.583Z,101407
2019-02-17T05:02:03.341Z,101400
2019-02-17T05:07:26.052Z,101398
2019-02-17T05:12:48.699Z,101391
2019-02-17T05:18:11.388Z,101388
2019-02-17T05:23:34.145Z,101383
2019-02-17T05:28:56.879Z,101377
2019-02-17T05:34:19.524Z,101376
2019-02-17T05:39:42.799Z,101378
2019-02-17T05:45:05.483Z,101374
2019-02-17T05:50:28.212Z,101371
2019-02-17T05:55:50.975Z,101373
2019-02-17T06:01:13.743Z,101371
2019-02-17T06:06:37.391Z,101374
2019-02-17T06:12:00.101Z,101374
2019-02-17T06:17:22.828Z,101378
2019-02-17T06:22:45.596Z,101378
2019-02-17T06:28:08.330Z,101371
2019-02-17T06:33:31.160Z,101368
2019-02-17T06:38:53.852Z,101366
2019-02-17T06:44:16.561Z,101372
2019-02-17T06:49:39.427Z,101366
2019-02-17T06:55:02.119Z,101368
2019-02-17T07:00:24.858Z,101369
2019-02-17T07:05:47.501Z,101375
2019-02-17T07:11:10.306Z,101378
2019-02-17T07:16:32.983Z,101379
2019-02-17T07:21:55.820Z,101378
2019-02-17T07:27:18.552Z,101373
2019-02-17T07:32:41.269Z,101379
2019-02-17T07:38:04.093Z,101378
2019-02-17T07:43:26.927Z,101375
2019-02-17T07:48:50.480Z,101379
2019-02-17T07:54:13.679Z,101372
2019-02-17T07:59:38.456Z,101365
2019-02-17T08:05:01.550Z,101366
2019-02-17T08:10:24.517Z,101365
2019-02-17T08:15:47.177Z,101369
2019-02-17T08:21:10.889Z,101363
2019-02-17T08:26:33.541Z,101363
2019-02-17T08:31:56.349Z,101361
2019-02-17T08:37:19.025Z,101349
2019-02-17T08:42:41.750Z,101356
2019-02-17T08:48:04.522Z,101353
2019-02-17T08:53:27.191Z,101351
2019-02-17T08:58:49.889Z,101342
2019-02-17T09:04:13.495Z,101343
2019-02-17T09:09:36.175Z,101337
2019-02-17T09:14:58.967Z,101327
2019-02-17T09:20:22.398Z,101326
2019-02-17T09:25:45.147Z,101322
2019-02-17T09:31:07.986Z,101320
2019-02-17T09:36:30.790Z,101312
2019-02-17T09:41:53.838Z,101310
2019-02-17T09:47:16.618Z,101303
2019-02-17T09:52:41.315Z,101300
2019-02-17T09:58:03.221Z,101294
2019-02-17T10:03:25.831Z,101289
2019-02-17T10:08:48.602Z,101282
2019-02-17T10:14:12.344Z,101291
2019-02-17T10:19:35.058Z,101278
2019-02-17T10:24:57.978Z,101286
2019-02-17T10:30:20.724Z,101273
2019-02-17T10:35:43.370Z,101267
2019-02-17T10:41:06.319Z,101264
2019-02-17T10:46:28.969Z,101254
2019-02-17T10:51:51.804Z,101253
2019-02-17T10:57:15.504Z,101250
2019-02-17T11:02:46.592Z,101247
2019-02-17T11:08:02.241Z,101240
2019-02-17T11:13:25.113Z,101239
2019-02-17T11:18:48.011Z,101229
2019-02-17T11:24:10.688Z,101219
2019-02-17T11:29:33.487Z,101208
2019-02-17T11:34:56.185Z,101199
2019-02-17T11:40:20.609Z,101192
2019-02-17T11:45:43.402Z,101191
2019-02-17T11:51:06.193Z,101183
2019-02-17T11:56:28.971Z,101179
2019-02-17T12:01:51.686Z,101178
2019-02-17T12:07:14.495Z,101169
2019-02-17T12:12:38.189Z,101158
2019-02-17T12:18:00.852Z,101149
2019-02-17T12:23:23.624Z,101143
2019-02-17T12:28:47.171Z,101143
2019-02-17T12:34:09.867Z,101140
2019-02-17T12:39:32.592Z,101124
2019-02-17T12:44:57.127Z,101126
2019-02-17T12:50:18.472Z,101121
2019-02-17T12:55:41.275Z,101118
2019-02-17T13:01:04.016Z,101108
2019-02-17T13:06:26.978Z,101099
2019-02-17T13:11:49.673Z,101096
2019-02-17T13:17:12.392Z,101081
2019-02-17T13:22:35.384Z,101075
2019-02-17T13:27:58.081Z,101072
2019-02-17T13:33:21.023Z,101068
2019-02-17T13:38:43.779Z,101059
2019-02-17T13:44:06.589Z,101055
2019-02-17T13:49:29.325Z,101055
2019-02-17T13:54:53.064Z,101054
2019-02-17T14:00:15.800Z,101053
2019-02-17T14:05:38.483Z,101049
2019-02-17T14:11:02.619Z,101047
2019-02-17T14:16:25.459Z,101042
2019-02-17T14:21:57.009Z,101038
2019-02-17T14:27:20.061Z,101031
2019-02-17T14:32:43.038Z,101025
2019-02-17T14:38:05.818Z,101021
2019-02-17T14:43:28.559Z,101028
2019-02-17T14:49:20.112Z,101020
2019-02-17T14:54:54.245Z,101027
2019-02-17T15:00:25.801Z,101029
2019-02-17T15:05:48.492Z,101029
2019-02-17T15:11:12.366Z,101025
2019-02-17T15:16:43.828Z,101023
2019-02-17T15:22:17.580Z,101012
2019-02-17T15:27:48.917Z,101008
2019-02-17T15:33:12.176Z,101001
2019-02-17T15:38:35.920Z,100997
2019-02-17T15:43:59.118Z,100997
2019-02-17T15:49:22.021Z,100996
2019-02-17T15:54:44.946Z,100994
2019-02-17T16:00:08.163Z,100983
2019-02-17T16:05:31.256Z,100982
2019-02-17T16:10:54.120Z,100977
2019-02-17T16:16:16.796Z,100973
2019-02-17T16:21:39.518Z,100965
2019-02-17T16:27:02.281Z,100970
2019-02-17T16:32:25.238Z,100984
2019-02-17T16:37:48.674Z,100978
2019-02-17T16:43:12.064Z,100987
2019-02-17T16:48:34.793Z,100993
2019-02-17T16:53:57.764Z,100998
2019-02-17T16:59:20.485Z,100987
2019-02-17T17:04:48.295Z,100981
2019-02-17T17:10:07.649Z,100991
2019-02-17T17:15:30.608Z,100989
2019-02-17T17:20:53.415Z,100991
2019-02-17T17:26:16.169Z,100992
2019-02-17T17:31:38.902Z,100988
2019-02-17T17:37:02.637Z,100993
2019-02-17T17:42:25.545Z,100995
2019-02-17T17:47:49.371Z,100993
2019-02-17T17:53:12.082Z,100994
2019-02-17T17:58:35.720Z,100993
2019-02-17T18:03:58.442Z,100999
2019-02-17T18:09:21.153Z,100994
2019-02-17T18:14:43.965Z,100992
2019-02-17T18:20:06.779Z,101002
2019-02-17T18:25:29.519Z,101000
2019-02-17T18:30:52.221Z,101007
2019-02-17T18:36:15.320Z,101009
2019-02-17T18:41:37.992Z,101012
2019-02-17T18:47:00.797Z,101017
2019-02-17T18:52:24.249Z,101018
2019-02-17T18:57:50.374Z,101023
2019-02-17T19:03:09.696Z,101028
2019-02-17T19:08:32.647Z,101024
2019-02-17T19:13:55.415Z,101018
2019-02-17T19:19:18.315Z,101024
2019-02-17T19:24:41.276Z,101020
2019-02-17T19:30:04.153Z,101025
2019-02-17T19:35:26.936Z,101021
2019-02-17T19:40:50.720Z,101024
2019-02-17T19:46:13.453Z,101025
2019-02-17T19:51:36.296Z,101029
2019-02-17T19:56:59.284Z,101031
2019-02-17T20:02:22.051Z,101034
2019-02-17T20:07:47.436Z,101033
2019-02-17T20:13:11.402Z,101037
2019-02-17T20:18:34.143Z,101041
2019-02-17T20:23:56.913Z,101042
2019-02-17T20:29:19.586Z,101043
2019-02-17T20:34:42.442Z,101047
2019-02-17T20:40:05.461Z,101051
2019-02-17T20:45:30.135Z,101056
2019-02-17T20:50:50.926Z,101056
2019-02-17T20:56:13.624Z,101055
2019-02-17T21:01:36.346Z,101060
2019-02-17T21:06:59.183Z,101065
2019-02-17T21:12:21.933Z,101061
2019-02-17T21:17:44.610Z,101059
2019-02-17T21:23:07.467Z,101068
2019-02-17T21:28:30.172Z,101068
2019-02-17T21:33:53.016Z,101073
2019-02-17T21:39:15.702Z,101071
2019-02-17T21:44:38.370Z,101072
2019-02-17T21:50:03.454Z,101077
2019-02-17T21:55:23.870Z,101078
2019-02-17T22:00:47.233Z,101073
2019-02-17T22:06:09.908Z,101067
2019-02-17T22:11:32.735Z,101072
2019-02-17T22:16:55.623Z,101068
2019-02-17T22:22:18.415Z,101073
2019-02-17T22:27:41.087Z,101070
2019-02-17T22:33:03.762Z,101066
2019-02-17T22:38:26.413Z,101063
2019-02-17T22:43:49.099Z,101070
2019-02-17T22:49:11.734Z,101069
2019-02-17T22:54:34.553Z,101066
2019-02-17T22:59:57.366Z,101062
2019-02-17T23:05:20.160Z,101052
2019-02-17T23:10:43.058Z,101058
2019-02-17T23:16:05.918Z,101063
2019-02-17T23:21:28.850Z,101059
2019-02-17T23:26:51.574Z,101061
2019-02-17T23:32:14.573Z,101071
2019-02-17T23:37:37.398Z,101069
2019-02-17T23:43:00.112Z,101065
2019-02-17T23:48:22.806Z,101058
2019-02-17T23:53:45.591Z,101064
2019-02-17T23:59:08.487Z,101066
